Las Vegas, Nevada
Traffic Map
Current Weather Conditions
Las Vegas, Nevada
Few Clouds
Few Clouds
86°
Feels Like: 86°
Wind Chill: 86° Ceiling: Unl
Heat Index: 86° Visibility: 10mi
Dew Point: 59° Wind: 7mph
Humidity: 40% Direction: 70° (ENE)
Pressure: 29.92in Gusts: 0mph
Raw Report DataKLAS 151356Z 07006KT 10SM FEW150 FEW200 30/15 A2992 RMK AO2 SLP099 T03000150
Traffic Incident Summary
Active as of:
Severity:
Category:
InformationThere was an issue retrieving the traffic information for this location. Please try a different location or try again shortly.
Advertisements